createdAt,value
2023-04-02T00:00:23.065Z,63458.53
2023-04-02T00:01:37.736Z,63458.65
2023-04-02T00:03:01.512Z,63456.04
2023-04-02T00:04:06.562Z,63456.04
2023-04-02T00:05:28.400Z,63454.26
2023-04-02T00:06:34.436Z,63453.18
2023-04-02T00:07:38.732Z,63448.79
2023-04-02T00:08:40.645Z,63448.79
2023-04-02T00:09:43.110Z,63443.99
2023-04-02T00:10:51.797Z,63440.16
2023-04-02T00:11:54.445Z,63447.14
2023-04-02T00:13:04.205Z,63444.66
2023-04-02T00:14:19.057Z,63458.42
2023-04-02T00:15:22.102Z,63451.64
2023-04-02T00:16:24.311Z,63455.37
2023-04-02T00:17:27.667Z,63454.26
2023-04-02T00:18:31.633Z,63457.55
2023-04-02T00:19:39.832Z,63456.14
2023-04-02T00:20:45.300Z,63458.09
2023-04-02T00:21:48.478Z,63449.70
2023-04-02T00:22:50.875Z,63447.38
2023-04-02T00:23:57.509Z,63459.74
2023-04-02T00:25:02.705Z,63458.65
2023-04-02T00:26:36.166Z,63451.64
2023-04-02T00:27:39.075Z,63450.56
2023-04-02T00:28:41.782Z,63452.21
2023-04-02T00:29:48.468Z,63452.08
2023-04-02T00:30:55.883Z,63451.41
2023-04-02T00:31:59.177Z,63448.12
2023-04-02T00:33:02.542Z,63453.72
2023-04-02T00:34:07.770Z,63448.79
2023-04-02T00:35:19.196Z,63448.79
2023-04-02T00:36:22.681Z,63439.72
2023-04-02T00:37:28.337Z,63437.28
2023-04-02T00:38:32.835Z,63442.21
2023-04-02T00:39:38.483Z,63438.26
2023-04-02T00:40:41.973Z,63426.03
2023-04-02T00:41:45.333Z,63430.71
2023-04-02T00:42:49.035Z,63440.46
2023-04-02T00:43:51.967Z,63434.43
2023-04-02T00:44:54.666Z,63428.22
2023-04-02T00:45:59.854Z,63436.20
2023-04-02T00:47:05.731Z,63440.03
2023-04-02T00:48:32.744Z,63442.88
2023-04-02T00:49:38.113Z,63443.86
2023-04-02T00:50:43.739Z,63442.88
2023-04-02T00:53:01.817Z,63446.84
2023-04-02T00:54:07.514Z,63443.32
2023-04-02T00:55:16.154Z,63434.79
2023-04-02T00:57:36.893Z,63449.33
2023-04-02T00:58:40.214Z,63443.43
2023-04-02T00:59:55.673Z,63443.43
2023-04-02T01:00:59.412Z,63445.93
2023-04-02T01:02:17.382Z,63455.24
2023-04-02T01:03:23.599Z,63448.79
2023-04-02T01:04:34.407Z,63443.32
2023-04-02T01:05:37.599Z,63450.43
2023-04-02T01:06:41.804Z,63456.88
2023-04-02T01:07:50.422Z,63450.43
2023-04-02T01:09:20.509Z,63450.67
2023-04-02T01:10:41.663Z,63450.00
2023-04-02T01:12:03.981Z,63450.43
2023-04-02T01:13:21.978Z,63453.72
2023-04-02T01:14:33.455Z,63454.82
2023-04-02T01:15:45.279Z,63455.80
2023-04-02T01:16:53.872Z,63453.72
2023-04-02T01:18:36.125Z,63446.71
2023-04-02T01:19:59.483Z,63450.30
2023-04-02T01:21:17.464Z,63437.41
2023-04-02T01:22:29.072Z,63430.40
2023-04-02T01:23:34.748Z,63453.72
2023-04-02T01:24:37.133Z,63450.43
2023-04-02T01:25:42.875Z,63455.37
2023-04-02T01:26:56.576Z,63453.59
2023-04-02T01:28:08.306Z,63442.21
2023-04-02T01:29:16.878Z,63445.50
2023-04-02T01:30:19.913Z,63444.40
2023-04-02T01:31:23.476Z,63454.16
2023-04-02T01:32:29.319Z,63457.32
2023-04-02T01:33:35.334Z,63445.39
2023-04-02T01:34:38.353Z,63441.78
2023-04-02T01:35:44.035Z,63443.01
2023-04-02T01:37:06.888Z,63452.62
2023-04-02T01:38:15.290Z,63449.22
2023-04-02T01:39:27.115Z,63444.96
2023-04-02T01:41:51.295Z,63441.24
2023-04-02T01:43:26.486Z,63438.69
2023-04-02T01:44:53.577Z,63431.94
2023-04-02T01:45:57.979Z,63440.03
2023-04-02T01:47:02.964Z,63427.12
2023-04-02T01:48:08.527Z,63438.93
2023-04-02T01:49:14.249Z,63442.65
2023-04-02T01:50:23.519Z,63436.31
2023-04-02T01:51:34.561Z,63441.78
2023-04-02T01:52:39.994Z,63431.37
2023-04-02T01:53:42.145Z,63434.56
2023-04-02T01:54:46.692Z,63434.56
2023-04-02T01:55:55.446Z,63433.45
2023-04-02T01:56:58.399Z,63434.43
2023-04-02T01:58:02.693Z,63428.65
2023-04-02T01:59:07.240Z,63432.79
2023-04-02T02:00:13.805Z,63438.15
2023-04-02T02:01:22.165Z,63437.84
2023-04-02T02:02:24.457Z,63437.84
2023-04-02T02:03:27.956Z,63433.45
2023-04-02T02:04:31.510Z,63437.28
2023-04-02T02:05:33.928Z,63428.22
2023-04-02T02:06:36.474Z,63435.10
2023-04-02T02:07:38.873Z,63432.91
2023-04-02T02:08:44.913Z,63434.56
2023-04-02T02:09:49.056Z,63432.48
2023-04-02T02:10:52.171Z,63438.93
2023-04-02T02:11:59.300Z,63431.94
2023-04-02T02:13:02.540Z,63435.64
2023-04-02T02:14:25.054Z,63435.64
2023-04-02T02:15:28.255Z,63436.74
2023-04-02T02:16:30.866Z,63431.27
2023-04-02T02:17:33.413Z,63426.34
2023-04-02T02:18:37.687Z,63427.55
2023-04-02T02:19:47.370Z,63427.44
2023-04-02T02:20:50.926Z,63429.63
2023-04-02T02:21:56.125Z,63427.55
2023-04-02T02:23:01.264Z,63432.35
2023-04-02T02:24:05.750Z,63433.89
2023-04-02T02:26:32.558Z,63436.87
2023-04-02T02:27:56.116Z,63436.74
2023-04-02T02:29:01.613Z,63438.26
2023-04-02T02:30:07.722Z,63424.93
2023-04-02T02:31:16.412Z,63422.75
2023-04-02T02:32:21.818Z,63431.27
2023-04-02T02:33:36.028Z,63425.23
2023-04-02T02:34:41.679Z,63424.70
2023-04-02T02:36:05.683Z,63427.31
2023-04-02T02:37:15.502Z,63426.34
2023-04-02T02:38:36.167Z,63422.08
2023-04-02T02:40:53.262Z,63430.17
2023-04-02T02:41:58.994Z,63423.59
2023-04-02T02:43:03.978Z,63421.95
2023-04-02T02:44:15.688Z,63424.46
2023-04-02T02:45:21.518Z,63423.05
2023-04-02T02:46:26.517Z,63426.77
2023-04-02T02:47:31.994Z,63427.44
2023-04-02T02:48:37.832Z,63425.80
2023-04-02T02:49:46.014Z,63426.34
2023-04-02T02:50:50.201Z,63430.17
2023-04-02T02:51:55.948Z,63428.09
2023-04-02T02:53:00.788Z,63424.82
2023-04-02T02:54:04.947Z,63430.17
2023-04-02T02:55:14.189Z,63421.41
2023-04-02T02:56:19.213Z,63429.50
2023-04-02T02:57:24.688Z,63424.15
2023-04-02T02:58:29.820Z,63420.00
2023-04-02T02:59:32.830Z,63429.63
2023-04-02T03:00:36.960Z,63429.09
2023-04-02T03:01:38.903Z,63427.98
2023-04-02T03:02:42.321Z,63436.07
2023-04-02T03:03:47.515Z,63430.84
2023-04-02T03:04:53.780Z,63431.27
2023-04-02T03:05:59.178Z,63424.70
2023-04-02T03:07:03.580Z,63423.72
2023-04-02T03:08:08.331Z,63429.73
2023-04-02T03:09:23.811Z,63423.72
2023-04-02T03:10:55.895Z,63423.18
2023-04-02T03:12:07.635Z,63423.18
2023-04-02T03:13:13.330Z,63419.89
2023-04-02T03:14:34.160Z,63426.88
2023-04-02T03:16:07.786Z,63419.46
2023-04-02T03:17:19.688Z,63419.46
2023-04-02T03:18:45.148Z,63426.10
2023-04-02T03:19:56.581Z,63413.86
2023-04-02T03:21:20.362Z,63418.79
2023-04-02T03:22:40.790Z,63422.92
2023-04-02T03:23:48.994Z,63415.74
2023-04-02T03:26:13.589Z,63424.70
2023-04-02T03:27:19.333Z,63420.30
2023-04-02T03:28:34.063Z,63424.15
2023-04-02T03:29:45.739Z,63417.02
2023-04-02T03:30:51.636Z,63416.17
2023-04-02T03:32:03.779Z,63423.05
2023-04-02T03:33:19.262Z,63424.15
2023-04-02T03:34:25.592Z,63425.80
2023-04-02T03:35:42.825Z,63427.31
2023-04-02T03:36:58.674Z,63407.41
2023-04-02T03:38:07.653Z,63424.46
2023-04-02T03:39:13.361Z,63421.41
2023-04-02T03:40:23.718Z,63417.02
2023-04-02T03:41:29.398Z,63413.86
2023-04-02T03:43:57.260Z,63417.27
2023-04-02T03:45:02.910Z,63414.83
2023-04-02T03:46:14.404Z,63415.80
2023-04-02T03:47:31.893Z,63415.39
2023-04-02T03:48:44.657Z,63414.40
2023-04-02T03:49:59.353Z,63413.99
2023-04-02T03:51:14.696Z,63415.50
2023-04-02T03:52:28.244Z,63416.91
2023-04-02T03:53:31.309Z,63414.83
2023-04-02T03:54:33.664Z,63413.75
2023-04-02T03:55:38.284Z,63413.75
2023-04-02T03:56:41.379Z,63414.29
2023-04-02T03:57:49.114Z,63411.13
2023-04-02T03:58:54.795Z,63414.29
2023-04-02T04:00:00.641Z,63413.49
2023-04-02T04:01:19.126Z,63412.11
2023-04-02T04:02:37.088Z,63412.78
2023-04-02T04:03:45.639Z,63417.69
2023-04-02T04:04:49.706Z,63417.58
2023-04-02T04:06:01.648Z,63413.32
2023-04-02T04:07:04.169Z,63412.65
2023-04-02T04:08:09.615Z,63416.48
2023-04-02T04:10:37.948Z,63413.08
2023-04-02T04:11:49.522Z,63406.61
2023-04-02T04:12:55.083Z,63415.93
2023-04-02T04:14:00.747Z,63415.93
2023-04-02T04:16:20.861Z,63420.30
2023-04-02T04:17:35.971Z,63411.54
2023-04-02T04:18:51.037Z,63415.93
2023-04-02T04:19:59.897Z,63413.19
2023-04-02T04:21:05.121Z,63409.90
2023-04-02T04:22:11.206Z,63402.79
2023-04-02T04:23:24.428Z,63408.82
2023-04-02T04:24:27.151Z,63408.26
2023-04-02T04:25:32.052Z,63404.56
2023-04-02T04:26:56.210Z,63410.46
2023-04-02T04:28:10.464Z,63402.79
2023-04-02T04:29:40.513Z,63406.51
2023-04-02T04:30:49.549Z,63398.94
2023-04-02T04:31:54.329Z,63401.66
2023-04-02T04:33:16.966Z,63408.26
2023-04-02T04:34:23.350Z,63399.48
2023-04-02T04:35:40.880Z,63401.66
2023-04-02T04:36:46.892Z,63399.05
2023-04-02T04:37:51.851Z,63396.32
2023-04-02T04:39:00.530Z,63390.29
2023-04-02T04:40:06.489Z,63395.65
2023-04-02T04:41:16.753Z,63398.40
2023-04-02T04:42:22.578Z,63404.56
2023-04-02T04:43:44.775Z,63412.11
2023-04-02T04:44:56.766Z,63403.33
2023-04-02T04:46:28.819Z,63405.53
2023-04-02T04:47:37.810Z,63397.43
2023-04-02T04:48:57.139Z,63408.26
2023-04-02T04:51:33.229Z,63406.20
2023-04-02T04:52:42.178Z,63408.93
2023-04-02T04:53:50.528Z,63410.88
2023-04-02T04:54:53.283Z,63405.53
2023-04-02T04:56:06.085Z,63413.75
2023-04-02T04:57:05.899Z,63413.75
2023-04-02T04:58:14.361Z,63409.60
2023-04-02T04:59:29.120Z,63421.17
2023-04-02T05:00:40.378Z,63413.99
2023-04-02T05:02:01.213Z,63413.75
2023-04-02T05:03:07.227Z,63411.24
2023-04-02T05:04:25.226Z,63407.29
2023-04-02T05:05:30.698Z,63409.36
2023-04-02T05:06:36.533Z,63408.39
2023-04-02T05:07:45.387Z,63402.92
2023-04-02T05:08:50.507Z,63403.46
2023-04-02T05:09:56.189Z,63403.46
2023-04-02T05:11:05.051Z,63411.54
2023-04-02T05:12:13.767Z,63404.56
2023-04-02T05:14:40.170Z,63414.29
2023-04-02T05:16:06.031Z,63415.93
2023-04-02T05:17:21.246Z,63416.48
2023-04-02T05:18:34.419Z,63416.61
2023-04-02T05:19:49.329Z,63418.98
2023-04-02T05:21:00.440Z,63420.30
2023-04-02T05:22:21.297Z,63406.31
2023-04-02T05:23:32.585Z,63422.38
2023-04-02T05:24:58.150Z,63416.04
2023-04-02T05:26:06.913Z,63415.93
2023-04-02T05:27:31.011Z,63410.03
2023-04-02T05:29:02.974Z,63414.83
2023-04-02T05:30:24.128Z,63416.17
2023-04-02T05:32:51.518Z,63410.16
2023-04-02T05:33:54.892Z,63415.93
2023-04-02T05:34:58.194Z,63419.63
2023-04-02T05:36:07.126Z,63418.79
2023-04-02T05:37:25.348Z,63419.52
2023-04-02T05:38:31.088Z,63420.74
2023-04-02T05:39:34.219Z,63414.29
2023-04-02T05:40:43.008Z,63415.93
2023-04-02T05:41:46.177Z,63420.87
2023-04-02T05:42:51.393Z,63414.53
2023-04-02T05:45:40.949Z,63419.89
2023-04-02T05:46:55.898Z,63419.89
2023-04-02T05:48:01.691Z,63412.52
2023-04-02T05:49:07.682Z,63418.12
2023-04-02T05:50:13.848Z,63410.03
2023-04-02T05:52:32.853Z,63411.00
2023-04-02T05:53:38.508Z,63399.48
2023-04-02T05:54:56.015Z,63403.89
2023-04-02T05:56:14.069Z,63409.36
2023-04-02T05:57:39.395Z,63412.65
2023-04-02T05:58:36.993Z,63411.85
2023-04-02T05:59:45.352Z,63406.07
2023-04-02T06:02:35.422Z,63400.58
2023-04-02T06:03:59.571Z,63400.58
2023-04-02T06:05:17.347Z,63400.58
2023-04-02T06:06:28.991Z,63403.20
2023-04-02T06:07:34.681Z,63397.84
2023-04-02T06:08:40.353Z,63400.58
2023-04-02T06:09:46.041Z,63401.81
2023-04-02T06:10:57.836Z,63406.51
2023-04-02T06:12:03.589Z,63399.63
2023-04-02T06:13:08.278Z,63389.08
2023-04-02T06:14:15.909Z,63387.43
2023-04-02T06:15:21.204Z,63378.92
2023-04-02T06:16:27.102Z,63386.36
2023-04-02T06:17:29.840Z,63386.36
2023-04-02T06:18:36.129Z,63393.77
2023-04-02T06:19:38.964Z,63386.36
2023-04-02T06:20:41.193Z,63388.54
2023-04-02T06:21:47.836Z,63391.15
2023-04-02T06:22:59.360Z,63389.08
2023-04-02T06:24:04.945Z,63388.11
2023-04-02T06:25:25.717Z,63382.64
2023-04-02T06:26:41.248Z,63379.78
2023-04-02T06:27:46.144Z,63384.82
2023-04-02T06:30:05.329Z,63402.79
2023-04-02T06:31:11.006Z,63398.40
2023-04-02T06:32:12.992Z,63401.66
2023-04-02T06:33:14.967Z,63399.05
2023-04-02T06:34:22.967Z,63406.07
2023-04-02T06:35:27.398Z,63409.90
2023-04-02T06:36:31.892Z,63409.49
2023-04-02T06:37:43.814Z,63417.45
2023-04-02T06:38:49.946Z,63411.98
2023-04-02T06:39:52.061Z,63417.02
2023-04-02T06:41:00.806Z,63412.21
2023-04-02T06:42:07.920Z,63403.46
2023-04-02T06:44:43.424Z,63413.62
2023-04-02T06:45:48.282Z,63412.11
2023-04-02T06:46:54.240Z,63408.26
2023-04-02T06:47:59.313Z,63406.61
2023-04-02T06:50:24.616Z,63412.65
2023-04-02T06:51:28.114Z,63407.18
2023-04-02T06:52:46.045Z,63411.54
2023-04-02T06:53:49.758Z,63406.61
2023-04-02T06:54:52.602Z,63398.94
2023-04-02T06:55:58.353Z,63403.33
2023-04-02T06:57:00.418Z,63407.18
2023-04-02T06:58:02.689Z,63410.46
2023-04-02T06:59:04.718Z,63408.26
2023-04-02T07:00:11.864Z,63406.31
2023-04-02T07:01:23.155Z,63414.29
2023-04-02T07:02:32.161Z,63417.02
2023-04-02T07:03:34.605Z,63420.20
2023-04-02T07:04:37.018Z,63417.02
2023-04-02T07:05:41.106Z,63422.51
2023-04-02T07:06:42.889Z,63415.27
2023-04-02T07:07:44.777Z,63413.08
2023-04-02T07:08:47.381Z,63415.80
2023-04-02T07:09:49.254Z,63419.63
2023-04-02T07:10:52.207Z,63411.24
2023-04-02T07:11:54.067Z,63420.20
2023-04-02T07:12:56.980Z,63416.17
2023-04-02T07:13:59.709Z,63423.05
2023-04-02T07:15:01.980Z,63416.71
2023-04-02T07:16:05.985Z,63417.58
2023-04-02T07:17:12.013Z,63417.45
2023-04-02T07:18:23.302Z,63413.75
2023-04-02T07:19:25.512Z,63411.54
2023-04-02T07:20:31.037Z,63421.95
2023-04-02T07:21:33.135Z,63412.89
2023-04-02T07:22:35.041Z,63410.88
2023-04-02T07:23:38.087Z,63408.93
2023-04-02T07:24:39.992Z,63414.16
2023-04-02T07:25:41.879Z,63409.06
2023-04-02T07:26:43.845Z,63421.41
2023-04-02T07:27:46.501Z,63414.40
2023-04-02T07:28:49.596Z,63420.43
2023-04-02T07:29:52.032Z,63431.03
2023-04-02T07:30:55.077Z,63415.63
2023-04-02T07:31:56.971Z,63425.80
2023-04-02T07:32:59.448Z,63435.40
2023-04-02T07:34:01.990Z,63427.98
2023-04-02T07:35:04.782Z,63429.63
2023-04-02T07:36:07.247Z,63431.27
2023-04-02T07:37:13.051Z,63427.98
2023-04-02T07:38:15.277Z,63430.30
2023-04-02T07:39:17.201Z,63424.70
2023-04-02T07:40:20.995Z,63438.26
2023-04-02T07:41:23.445Z,63429.73
2023-04-02T07:42:25.419Z,63418.79
2023-04-02T07:43:27.296Z,63425.36
2023-04-02T07:44:29.186Z,63429.09
2023-04-02T07:45:31.967Z,63429.09
2023-04-02T07:46:34.032Z,63434.32
2023-04-02T07:47:35.992Z,63433.69
2023-04-02T07:48:37.953Z,63429.19
2023-04-02T07:49:39.885Z,63435.64
2023-04-02T07:50:42.139Z,63440.57
2023-04-02T07:51:44.171Z,63443.32
2023-04-02T07:52:46.159Z,63436.44
2023-04-02T07:53:49.188Z,63442.78
2023-04-02T07:54:51.101Z,63448.79
2023-04-02T07:55:53.748Z,63437.28
2023-04-02T07:56:56.330Z,63436.98
2023-04-02T07:57:58.654Z,63447.27
2023-04-02T07:59:00.526Z,63445.07
2023-04-02T08:00:03.097Z,63441.13
2023-04-02T08:01:09.124Z,63447.02
2023-04-02T08:03:27.588Z,63433.28
2023-04-02T08:04:30.162Z,63437.18
2023-04-02T08:05:32.018Z,63434.12
2023-04-02T08:06:33.993Z,63433.45
2023-04-02T08:07:36.525Z,63430.96
2023-04-02T08:08:39.031Z,63432.35
2023-04-02T08:09:41.029Z,63439.79
2023-04-02T08:10:43.279Z,63431.81
2023-04-02T08:11:45.173Z,63442.11
2023-04-02T08:12:47.143Z,63440.03
2023-04-02T08:13:49.200Z,63442.78
2023-04-02T08:14:51.084Z,63443.43
2023-04-02T08:15:52.940Z,63444.40
2023-04-02T08:16:54.914Z,63441.24
2023-04-02T08:17:57.143Z,63437.41
2023-04-02T08:18:59.337Z,63448.12
2023-04-02T08:20:01.348Z,63438.39
2023-04-02T08:21:07.028Z,63443.32
2023-04-02T08:22:09.200Z,63440.03
2023-04-02T08:23:15.337Z,63444.83
2023-04-02T08:24:17.885Z,63443.32
2023-04-02T08:25:19.846Z,63436.31
2023-04-02T08:26:21.827Z,63443.32
2023-04-02T08:27:24.688Z,63436.31
2023-04-02T08:28:26.929Z,63430.40
2023-04-02T08:29:28.965Z,63431.94
2023-04-02T08:30:30.990Z,63437.41
2023-04-02T08:31:32.995Z,63438.93
2023-04-02T08:32:35.450Z,63442.21
2023-04-02T08:33:37.694Z,63449.22
2023-04-02T08:34:39.630Z,63444.96
2023-04-02T08:35:41.746Z,63440.70
2023-04-02T08:36:44.168Z,63436.87
2023-04-02T08:37:46.029Z,63440.57
2023-04-02T08:38:47.890Z,63436.74
2023-04-02T08:39:49.832Z,63442.21
2023-04-02T08:40:56.894Z,63442.11
2023-04-02T08:42:02.840Z,63437.41
2023-04-02T08:43:09.035Z,63438.52
2023-04-02T08:44:34.532Z,63441.13
2023-04-02T08:45:43.103Z,63439.49
2023-04-02T08:48:12.215Z,63442.21
2023-04-02T08:49:17.666Z,63436.74
2023-04-02T08:50:32.786Z,63431.50
2023-04-02T08:51:36.273Z,63442.65
2023-04-02T08:52:38.891Z,63435.64
2023-04-02T08:53:41.898Z,63424.93
2023-04-02T08:54:44.066Z,63437.84
2023-04-02T08:55:58.572Z,63438.93
2023-04-02T08:57:19.536Z,63435.77
2023-04-02T08:58:40.349Z,63430.40
2023-04-02T08:59:44.298Z,63426.88
2023-04-02T09:00:50.607Z,63429.09
2023-04-02T09:01:59.468Z,63426.46
2023-04-02T09:03:16.813Z,63432.91
2023-04-02T09:04:22.409Z,63432.35
2023-04-02T09:05:30.933Z,63423.18
2023-04-02T09:06:33.452Z,63428.52
2023-04-02T09:07:35.476Z,63417.69
2023-04-02T09:08:39.328Z,63417.02
2023-04-02T09:09:44.591Z,63419.63
2023-04-02T09:11:09.268Z,63421.41
2023-04-02T09:13:28.383Z,63415.93
2023-04-02T09:14:43.028Z,63408.26
2023-04-02T09:15:45.233Z,63406.61
2023-04-02T09:16:53.872Z,63410.46
2023-04-02T09:17:59.771Z,63408.26
2023-04-02T09:19:01.862Z,63402.36
2023-04-02T09:20:15.784Z,63408.26
2023-04-02T09:21:26.930Z,63414.29
2023-04-02T09:22:31.157Z,63405.10
2023-04-02T09:23:33.307Z,63411.54
2023-04-02T09:24:35.954Z,63408.26
2023-04-02T09:25:42.189Z,63405.10
2023-04-02T09:26:46.010Z,63404.00
2023-04-02T09:27:51.469Z,63410.88
2023-04-02T09:29:03.312Z,63413.62
2023-04-02T09:30:27.068Z,63400.58
2023-04-02T09:31:47.845Z,63400.58
2023-04-02T09:33:02.105Z,63402.48
2023-04-02T09:34:25.498Z,63407.18
2023-04-02T09:35:30.240Z,63410.03
2023-04-02T09:36:38.657Z,63407.84
2023-04-02T09:37:42.506Z,63413.75
2023-04-02T09:39:07.483Z,63413.75
2023-04-02T09:40:25.644Z,63420.20
2023-04-02T09:41:29.641Z,63418.25
2023-04-02T09:42:34.372Z,63416.37
2023-04-02T09:43:39.367Z,63421.71
2023-04-02T09:44:41.357Z,63413.32
2023-04-02T09:45:45.955Z,63413.75
2023-04-02T09:47:03.485Z,63410.03
2023-04-02T09:48:18.647Z,63407.41
2023-04-02T09:49:24.358Z,63412.11
2023-04-02T09:51:41.036Z,63415.93
2023-04-02T09:52:43.231Z,63411.24
2023-04-02T09:53:48.353Z,63421.41
2023-04-02T09:55:17.113Z,63425.12
2023-04-02T09:56:23.657Z,63425.12
2023-04-02T09:57:25.709Z,63425.23
2023-04-02T09:58:27.801Z,63421.95
2023-04-02T09:59:29.837Z,63414.29
2023-04-02T10:00:32.806Z,63410.27
2023-04-02T10:01:57.290Z,63409.49
2023-04-02T10:03:19.981Z,63417.58
2023-04-02T10:04:37.547Z,63411.91
2023-04-02T10:05:41.245Z,63426.64
2023-04-02T10:08:06.985Z,63418.79
2023-04-02T10:09:22.023Z,63423.05
2023-04-02T10:10:30.572Z,63424.82
2023-04-02T10:11:46.260Z,63432.79
2023-04-02T10:12:41.398Z,63436.50
2023-04-02T10:14:05.404Z,63429.63
2023-04-02T10:15:17.630Z,63438.69
2023-04-02T10:16:29.359Z,63429.19
2023-04-02T10:17:35.266Z,63441.67
2023-04-02T10:18:49.963Z,63433.45
2023-04-02T10:19:55.586Z,63434.12
2023-04-02T10:21:01.710Z,63435.64
2023-04-02T10:23:18.290Z,63426.57
2023-04-02T10:24:20.186Z,63440.57
2023-04-02T10:25:25.865Z,63435.10
2023-04-02T10:26:35.139Z,63430.30
2023-04-02T10:27:47.897Z,63435.77
2023-04-02T10:29:11.385Z,63431.50
2023-04-02T10:30:27.075Z,63433.89
2023-04-02T10:31:54.357Z,63436.50
2023-04-02T10:33:03.002Z,63429.86
2023-04-02T10:34:08.862Z,63433.99
2023-04-02T10:35:14.537Z,63430.84
2023-04-02T10:36:41.904Z,63432.91
2023-04-02T10:37:47.588Z,63430.71
2023-04-02T10:39:05.167Z,63431.27
2023-04-02T10:40:17.217Z,63422.08
2023-04-02T10:41:32.013Z,63429.63
2023-04-02T10:42:49.517Z,63431.27
2023-04-02T10:44:19.375Z,63435.77
2023-04-02T10:45:25.320Z,63431.27
2023-04-02T10:46:43.312Z,63436.50
2023-04-02T10:47:52.274Z,63435.10
2023-04-02T10:49:15.873Z,63425.36
2023-04-02T10:50:24.573Z,63427.98
2023-04-02T10:51:50.080Z,63432.35
2023-04-02T10:52:56.600Z,63432.48
2023-04-02T10:54:08.844Z,63432.61
2023-04-02T10:55:24.695Z,63435.90
2023-04-02T10:56:35.299Z,63444.40
2023-04-02T10:57:39.460Z,63438.52
2023-04-02T10:59:00.891Z,63437.54
2023-04-02T11:00:06.744Z,63452.75
2023-04-02T11:01:18.143Z,63438.26
2023-04-02T11:03:49.909Z,63449.03
2023-04-02T11:04:55.361Z,63458.53
2023-04-02T11:06:01.451Z,63453.85
2023-04-02T11:07:14.359Z,63467.85
2023-04-02T11:08:17.114Z,63463.70
2023-04-02T11:09:25.932Z,63459.20
2023-04-02T11:10:31.869Z,63466.31
2023-04-02T11:11:43.400Z,63466.87
2023-04-02T11:12:49.872Z,63460.84
2023-04-02T11:13:56.049Z,63461.95
2023-04-02T11:15:00.353Z,63469.17
2023-04-02T11:16:02.943Z,63469.73
2023-04-02T11:17:05.298Z,63469.60
2023-04-02T11:18:23.443Z,63469.60
2023-04-02T11:19:30.875Z,63464.80
2023-04-02T11:20:51.882Z,63466.21
2023-04-02T11:22:06.915Z,63459.32
2023-04-02T11:23:12.150Z,63460.17
2023-04-02T11:24:27.881Z,63452.31
2023-04-02T11:25:29.970Z,63469.06
2023-04-02T11:26:44.426Z,63467.55
2023-04-02T11:27:47.608Z,63469.17
2023-04-02T11:28:51.475Z,63466.98
2023-04-02T11:30:03.037Z,63467.42
2023-04-02T11:31:05.057Z,63468.09
2023-04-02T11:32:23.027Z,63463.82
2023-04-02T11:35:05.878Z,63473.12
2023-04-02T11:35:58.729Z,63465.23
2023-04-02T11:37:04.445Z,63466.31
2023-04-02T11:38:12.901Z,63462.05
2023-04-02T11:39:21.924Z,63466.87
2023-04-02T11:40:53.529Z,63467.65
2023-04-02T11:42:04.874Z,63467.55
2023-04-02T11:43:36.460Z,63465.90
2023-04-02T11:44:38.399Z,63466.87
2023-04-02T11:45:52.831Z,63457.45
2023-04-02T11:46:50.922Z,63455.48
2023-04-02T11:48:02.730Z,63451.64
2023-04-02T11:49:36.978Z,63455.91
2023-04-02T11:50:44.755Z,63462.48
2023-04-02T11:51:54.381Z,63456.47
2023-04-02T11:52:56.004Z,63462.48
2023-04-02T11:53:58.350Z,63460.84
2023-04-02T11:55:22.490Z,63468.52
2023-04-02T11:56:40.929Z,63467.96
2023-04-02T11:57:58.666Z,63458.53
2023-04-02T11:59:19.593Z,63456.58
2023-04-02T12:00:34.578Z,63458.65
2023-04-02T12:02:06.371Z,63451.64
2023-04-02T12:03:26.717Z,63449.46
2023-04-02T12:04:43.985Z,63460.84
2023-04-02T12:05:55.488Z,63465.77
2023-04-02T12:07:17.939Z,63453.18
2023-04-02T12:08:58.352Z,63454.70
2023-04-02T12:10:20.461Z,63452.21
2023-04-02T12:11:35.073Z,63459.32
2023-04-02T12:12:38.366Z,63460.84
2023-04-02T12:13:44.012Z,63463.02
2023-04-02T12:14:51.749Z,63457.37
2023-04-02T12:15:57.346Z,63460.41
2023-04-02T12:16:59.994Z,63465.23
2023-04-02T12:18:18.043Z,63465.64
2023-04-02T12:19:20.175Z,63460.41
2023-04-02T12:20:26.106Z,63458.09
2023-04-02T12:21:29.031Z,63459.74
2023-04-02T12:22:33.768Z,63458.22
2023-04-02T12:23:36.941Z,63457.12
2023-04-02T12:24:42.349Z,63459.74
2023-04-02T12:25:48.046Z,63460.84
2023-04-02T12:27:19.731Z,63461.38
2023-04-02T12:28:21.645Z,63461.95
2023-04-02T12:29:25.825Z,63449.46
2023-04-02T12:30:30.464Z,63450.43
2023-04-02T12:31:32.494Z,63447.27
2023-04-02T12:32:35.214Z,63440.81
2023-04-02T12:33:39.217Z,63447.69
2023-04-02T12:34:44.887Z,63455.80
2023-04-02T12:35:50.183Z,63453.59
2023-04-02T12:37:01.454Z,63450.13
2023-04-02T12:38:03.375Z,63455.37
2023-04-02T12:39:09.163Z,63463.89
2023-04-02T12:41:33.218Z,63459.32
2023-04-02T12:42:36.861Z,63458.65
2023-04-02T12:43:38.840Z,63461.95
2023-04-02T12:44:44.482Z,63458.65
2023-04-02T12:45:50.280Z,63458.22
2023-04-02T12:46:53.722Z,63462.61
2023-04-02T12:47:57.247Z,63465.77
2023-04-02T12:49:05.554Z,63451.34
2023-04-02T12:50:11.911Z,63452.21
2023-04-02T12:51:13.905Z,63457.79
2023-04-02T12:52:19.613Z,63456.47
2023-04-02T12:54:30.593Z,63457.55
2023-04-02T12:55:33.921Z,63451.11
2023-04-02T12:56:35.882Z,63449.46
2023-04-02T12:57:39.084Z,63457.32
2023-04-02T12:58:42.124Z,63455.37
2023-04-02T12:59:44.023Z,63450.56
2023-04-02T13:00:46.594Z,63445.93
2023-04-02T13:02:01.105Z,63446.04
2023-04-02T13:03:10.787Z,63452.08
2023-04-02T13:04:14.845Z,63446.04
2023-04-02T13:05:41.111Z,63440.70
2023-04-02T13:06:49.809Z,63442.78
2023-04-02T13:07:52.132Z,63449.89
2023-04-02T13:08:54.186Z,63450.30
2023-04-02T13:11:08.630Z,63447.82
2023-04-02T13:12:29.595Z,63445.50
2023-04-02T13:13:40.139Z,63445.74
2023-04-02T13:14:42.138Z,63450.98
2023-04-02T13:15:44.032Z,63440.70
2023-04-02T13:16:47.366Z,63441.78
2023-04-02T13:18:15.010Z,63443.43
2023-04-02T13:19:20.688Z,63444.66
2023-04-02T13:20:31.820Z,63449.46
2023-04-02T13:21:33.818Z,63453.59
2023-04-02T13:22:36.551Z,63445.50
2023-04-02T13:23:40.661Z,63444.96
2023-04-02T13:24:42.643Z,63447.69
2023-04-02T13:25:45.493Z,63449.89
2023-04-02T13:26:49.222Z,63441.67
2023-04-02T13:27:51.215Z,63441.78
2023-04-02T13:29:05.771Z,63441.13
2023-04-02T13:30:10.003Z,63442.78
2023-04-02T13:31:15.195Z,63446.04
2023-04-02T13:32:17.222Z,63447.27
2023-04-02T13:33:19.280Z,63441.37
2023-04-02T13:34:21.375Z,63443.32
2023-04-02T13:35:23.335Z,63444.66
2023-04-02T13:36:25.917Z,63453.59
2023-04-02T13:37:27.845Z,63447.69
2023-04-02T13:38:29.870Z,63449.89
2023-04-02T13:39:31.734Z,63445.07
2023-04-02T13:40:36.374Z,63450.74
2023-04-02T13:41:43.918Z,63444.83
2023-04-02T13:42:48.139Z,63445.27
2023-04-02T13:43:51.165Z,63442.65
2023-04-02T13:44:53.390Z,63436.44
2023-04-02T13:45:59.265Z,63444.53
2023-04-02T13:47:01.482Z,63441.67
2023-04-02T13:48:04.755Z,63437.84
2023-04-02T13:49:09.164Z,63445.80
2023-04-02T13:50:18.368Z,63441.78
2023-04-02T13:51:24.136Z,63432.61
2023-04-02T13:52:26.129Z,63433.58
2023-04-02T13:53:31.871Z,63437.28
2023-04-02T13:54:46.858Z,63439.59
2023-04-02T13:55:50.467Z,63441.13
2023-04-02T13:56:55.101Z,63440.03
2023-04-02T13:57:57.533Z,63436.31
2023-04-02T13:58:59.911Z,63424.93
2023-04-02T14:00:03.539Z,63426.34